sensor_id;sensor_type;location;lat;lon;timestamp;P1;durP1;ratioP1;P2;durP2;ratioP2
60432;SDS011;46286;48.098;11.590;2022-07-10T00:00:30;7.95;;;4.43;;
60432;SDS011;46286;48.098;11.590;2022-07-10T00:03:04;8.98;;;4.50;;
60432;SDS011;46286;48.098;11.590;2022-07-10T00:05:30;7.13;;;4.22;;
60432;SDS011;46286;48.098;11.590;2022-07-10T00:07:56;6.90;;;4.55;;
60432;SDS011;46286;48.098;11.590;2022-07-10T00:10:22;6.93;;;3.92;;
60432;SDS011;46286;48.098;11.590;2022-07-10T00:12:49;7.40;;;4.20;;
60432;SDS011;46286;48.098;11.590;2022-07-10T00:15:15;9.23;;;3.92;;
60432;SDS011;46286;48.098;11.590;2022-07-10T00:17:42;6.57;;;4.07;;
60432;SDS011;46286;48.098;11.590;2022-07-10T00:20:09;7.60;;;4.10;;
60432;SDS011;46286;48.098;11.590;2022-07-10T00:22:35;5.80;;;4.22;;
60432;SDS011;46286;48.098;11.590;2022-07-10T00:25:06;8.65;;;4.80;;
60432;SDS011;46286;48.098;11.590;2022-07-10T00:27:34;10.57;;;5.22;;
60432;SDS011;46286;48.098;11.590;2022-07-10T00:30:00;8.57;;;5.20;;
60432;SDS011;46286;48.098;11.590;2022-07-10T00:32:26;9.15;;;5.30;;
60432;SDS011;46286;48.098;11.590;2022-07-10T00:34:52;8.10;;;4.53;;
60432;SDS011;46286;48.098;11.590;2022-07-10T00:37:17;7.13;;;4.30;;
60432;SDS011;46286;48.098;11.590;2022-07-10T00:39:43;6.75;;;4.55;;
60432;SDS011;46286;48.098;11.590;2022-07-10T00:42:09;7.20;;;4.60;;
60432;SDS011;46286;48.098;11.590;2022-07-10T00:44:38;6.97;;;4.72;;
60432;SDS011;46286;48.098;11.590;2022-07-10T00:47:04;8.20;;;4.93;;
60432;SDS011;46286;48.098;11.590;2022-07-10T00:49:31;7.95;;;5.05;;
60432;SDS011;46286;48.098;11.590;2022-07-10T00:51:57;8.80;;;5.95;;
60432;SDS011;46286;48.098;11.590;2022-07-10T00:54:26;14.20;;;6.25;;
60432;SDS011;46286;48.098;11.590;2022-07-10T00:56:52;8.95;;;5.53;;
60432;SDS011;46286;48.098;11.590;2022-07-10T00:59:18;7.85;;;5.60;;
60432;SDS011;46286;48.098;11.590;2022-07-10T01:01:44;8.07;;;5.55;;
60432;SDS011;46286;48.098;11.590;2022-07-10T01:04:10;6.82;;;5.38;;
60432;SDS011;46286;48.098;11.590;2022-07-10T01:06:35;9.35;;;5.20;;
60432;SDS011;46286;48.098;11.590;2022-07-10T01:09:02;9.30;;;5.35;;
60432;SDS011;46286;48.098;11.590;2022-07-10T01:11:28;8.75;;;6.13;;
60432;SDS011;46286;48.098;11.590;2022-07-10T01:13:54;7.93;;;5.60;;
60432;SDS011;46286;48.098;11.590;2022-07-10T01:16:19;9.18;;;5.60;;
60432;SDS011;46286;48.098;11.590;2022-07-10T01:18:47;9.07;;;6.00;;
60432;SDS011;46286;48.098;11.590;2022-07-10T01:21:22;8.75;;;5.80;;
60432;SDS011;46286;48.098;11.590;2022-07-10T01:23:52;7.70;;;6.00;;
60432;SDS011;46286;48.098;11.590;2022-07-10T01:26:17;11.52;;;7.00;;
60432;SDS011;46286;48.098;11.590;2022-07-10T01:28:43;8.13;;;5.63;;
60432;SDS011;46286;48.098;11.590;2022-07-10T01:31:09;9.38;;;5.85;;
60432;SDS011;46286;48.098;11.590;2022-07-10T01:33:34;10.15;;;5.90;;
60432;SDS011;46286;48.098;11.590;2022-07-10T01:35:59;8.57;;;5.47;;
60432;SDS011;46286;48.098;11.590;2022-07-10T01:38:25;10.00;;;5.50;;
60432;SDS011;46286;48.098;11.590;2022-07-10T01:40:50;7.60;;;5.32;;
60432;SDS011;46286;48.098;11.590;2022-07-10T01:43:16;8.05;;;5.57;;
60432;SDS011;46286;48.098;11.590;2022-07-10T01:45:41;7.65;;;5.68;;
60432;SDS011;46286;48.098;11.590;2022-07-10T01:48:08;8.48;;;5.70;;
60432;SDS011;46286;48.098;11.590;2022-07-10T01:50:34;10.50;;;6.07;;
60432;SDS011;46286;48.098;11.590;2022-07-10T01:52:59;9.18;;;6.57;;
60432;SDS011;46286;48.098;11.590;2022-07-10T01:55:25;8.50;;;5.55;;
60432;SDS011;46286;48.098;11.590;2022-07-10T01:57:50;8.32;;;6.55;;
60432;SDS011;46286;48.098;11.590;2022-07-10T02:00:16;9.77;;;6.55;;
60432;SDS011;46286;48.098;11.590;2022-07-10T02:02:42;8.93;;;6.47;;
60432;SDS011;46286;48.098;11.590;2022-07-10T02:05:28;9.60;;;6.80;;
60432;SDS011;46286;48.098;11.590;2022-07-10T02:07:53;11.80;;;7.03;;
60432;SDS011;46286;48.098;11.590;2022-07-10T02:10:18;8.50;;;6.55;;
60432;SDS011;46286;48.098;11.590;2022-07-10T02:12:44;8.90;;;7.03;;
60432;SDS011;46286;48.098;11.590;2022-07-10T02:15:09;8.63;;;6.53;;
60432;SDS011;46286;48.098;11.590;2022-07-10T02:17:35;9.82;;;7.30;;
60432;SDS011;46286;48.098;11.590;2022-07-10T02:20:00;10.25;;;7.55;;
60432;SDS011;46286;48.098;11.590;2022-07-10T02:22:26;14.70;;;7.47;;
60432;SDS011;46286;48.098;11.590;2022-07-10T02:24:51;11.23;;;7.15;;
60432;SDS011;46286;48.098;11.590;2022-07-10T02:27:18;10.48;;;7.35;;
60432;SDS011;46286;48.098;11.590;2022-07-10T02:29:43;16.35;;;7.95;;
60432;SDS011;46286;48.098;11.590;2022-07-10T02:32:09;12.38;;;8.73;;
60432;SDS011;46286;48.098;11.590;2022-07-10T02:34:34;13.50;;;8.13;;
60432;SDS011;46286;48.098;11.590;2022-07-10T02:37:00;18.17;;;8.90;;
60432;SDS011;46286;48.098;11.590;2022-07-10T02:39:25;12.88;;;8.20;;
60432;SDS011;46286;48.098;11.590;2022-07-10T02:41:51;12.75;;;8.63;;
60432;SDS011;46286;48.098;11.590;2022-07-10T02:44:16;12.52;;;8.48;;
60432;SDS011;46286;48.098;11.590;2022-07-10T02:46:42;13.48;;;8.32;;
60432;SDS011;46286;48.098;11.590;2022-07-10T02:49:07;16.42;;;9.13;;
60432;SDS011;46286;48.098;11.590;2022-07-10T02:51:33;15.50;;;8.63;;
60432;SDS011;46286;48.098;11.590;2022-07-10T02:53:58;14.38;;;8.85;;
60432;SDS011;46286;48.098;11.590;2022-07-10T02:56:24;13.43;;;8.13;;
60432;SDS011;46286;48.098;11.590;2022-07-10T02:58:49;13.82;;;8.88;;
60432;SDS011;46286;48.098;11.590;2022-07-10T03:01:15;11.20;;;8.40;;
60432;SDS011;46286;48.098;11.590;2022-07-10T03:03:40;11.93;;;8.57;;
60432;SDS011;46286;48.098;11.590;2022-07-10T03:06:06;15.18;;;8.43;;
60432;SDS011;46286;48.098;11.590;2022-07-10T03:08:31;10.93;;;7.80;;
60432;SDS011;46286;48.098;11.590;2022-07-10T03:10:57;11.98;;;8.20;;
60432;SDS011;46286;48.098;11.590;2022-07-10T03:13:22;10.68;;;7.82;;
60432;SDS011;46286;48.098;11.590;2022-07-10T03:15:47;12.15;;;8.35;;
60432;SDS011;46286;48.098;11.590;2022-07-10T03:18:13;13.05;;;8.23;;
60432;SDS011;46286;48.098;11.590;2022-07-10T03:20:38;13.23;;;7.97;;
60432;SDS011;46286;48.098;11.590;2022-07-10T03:23:04;10.65;;;7.70;;
60432;SDS011;46286;48.098;11.590;2022-07-10T03:25:30;12.13;;;8.70;;
60432;SDS011;46286;48.098;11.590;2022-07-10T03:27:55;12.60;;;8.07;;
60432;SDS011;46286;48.098;11.590;2022-07-10T03:30:20;10.88;;;7.85;;
60432;SDS011;46286;48.098;11.590;2022-07-10T03:32:46;11.98;;;8.25;;
60432;SDS011;46286;48.098;11.590;2022-07-10T03:35:11;13.50;;;8.60;;
60432;SDS011;46286;48.098;11.590;2022-07-10T03:37:37;11.32;;;7.95;;
60432;SDS011;46286;48.098;11.590;2022-07-10T03:40:02;12.65;;;8.82;;
60432;SDS011;46286;48.098;11.590;2022-07-10T03:42:28;13.60;;;8.85;;
60432;SDS011;46286;48.098;11.590;2022-07-10T03:44:54;14.73;;;9.18;;
60432;SDS011;46286;48.098;11.590;2022-07-10T03:47:19;14.50;;;8.70;;
60432;SDS011;46286;48.098;11.590;2022-07-10T03:49:45;13.80;;;9.45;;
60432;SDS011;46286;48.098;11.590;2022-07-10T03:52:11;15.75;;;8.75;;
60432;SDS011;46286;48.098;11.590;2022-07-10T03:54:37;13.65;;;8.88;;
60432;SDS011;46286;48.098;11.590;2022-07-10T03:57:02;13.68;;;8.68;;
60432;SDS011;46286;48.098;11.590;2022-07-10T04:02:12;17.75;;;8.98;;
60432;SDS011;46286;48.098;11.590;2022-07-10T04:04:37;12.18;;;8.88;;
60432;SDS011;46286;48.098;11.590;2022-07-10T04:07:03;14.30;;;9.15;;
60432;SDS011;46286;48.098;11.590;2022-07-10T04:09:30;17.02;;;9.50;;
60432;SDS011;46286;48.098;11.590;2022-07-10T04:11:55;13.95;;;8.85;;
60432;SDS011;46286;48.098;11.590;2022-07-10T04:14:21;14.50;;;9.73;;
60432;SDS011;46286;48.098;11.590;2022-07-10T04:16:46;14.65;;;9.38;;
60432;SDS011;46286;48.098;11.590;2022-07-10T04:19:12;14.75;;;9.55;;
60432;SDS011;46286;48.098;11.590;2022-07-10T04:21:38;12.77;;;8.88;;
60432;SDS011;46286;48.098;11.590;2022-07-10T04:24:03;12.50;;;8.27;;
60432;SDS011;46286;48.098;11.590;2022-07-10T04:26:29;12.35;;;8.25;;
60432;SDS011;46286;48.098;11.590;2022-07-10T04:28:55;15.55;;;9.05;;
60432;SDS011;46286;48.098;11.590;2022-07-10T04:31:20;13.13;;;8.82;;
60432;SDS011;46286;48.098;11.590;2022-07-10T04:33:46;13.68;;;8.88;;
60432;SDS011;46286;48.098;11.590;2022-07-10T04:36:12;12.85;;;8.52;;
60432;SDS011;46286;48.098;11.590;2022-07-10T04:38:37;12.48;;;8.93;;
60432;SDS011;46286;48.098;11.590;2022-07-10T04:41:02;14.93;;;8.95;;
60432;SDS011;46286;48.098;11.590;2022-07-10T04:43:29;12.85;;;9.27;;
60432;SDS011;46286;48.098;11.590;2022-07-10T04:45:55;14.77;;;8.52;;
60432;SDS011;46286;48.098;11.590;2022-07-10T04:48:21;13.18;;;8.75;;
60432;SDS011;46286;48.098;11.590;2022-07-10T04:50:46;14.52;;;9.10;;
60432;SDS011;46286;48.098;11.590;2022-07-10T04:53:12;12.27;;;8.73;;
60432;SDS011;46286;48.098;11.590;2022-07-10T04:55:38;14.77;;;9.02;;
60432;SDS011;46286;48.098;11.590;2022-07-10T04:58:04;13.60;;;8.38;;
60432;SDS011;46286;48.098;11.590;2022-07-10T05:00:29;14.10;;;8.73;;
60432;SDS011;46286;48.098;11.590;2022-07-10T05:02:54;10.80;;;8.13;;
60432;SDS011;46286;48.098;11.590;2022-07-10T05:05:20;12.90;;;8.05;;
60432;SDS011;46286;48.098;11.590;2022-07-10T05:07:45;13.18;;;8.50;;
60432;SDS011;46286;48.098;11.590;2022-07-10T05:10:11;13.05;;;8.32;;
60432;SDS011;46286;48.098;11.590;2022-07-10T05:12:36;13.70;;;8.90;;
60432;SDS011;46286;48.098;11.590;2022-07-10T05:15:02;12.25;;;8.20;;
60432;SDS011;46286;48.098;11.590;2022-07-10T05:17:28;13.25;;;8.55;;
60432;SDS011;46286;48.098;11.590;2022-07-10T05:19:56;14.02;;;9.13;;
60432;SDS011;46286;48.098;11.590;2022-07-10T05:22:22;14.98;;;9.63;;
60432;SDS011;46286;48.098;11.590;2022-07-10T05:24:48;15.75;;;9.43;;
60432;SDS011;46286;48.098;11.590;2022-07-10T05:27:14;14.88;;;9.70;;
60432;SDS011;46286;48.098;11.590;2022-07-10T05:29:41;15.65;;;10.07;;
60432;SDS011;46286;48.098;11.590;2022-07-10T05:32:06;16.23;;;10.35;;
60432;SDS011;46286;48.098;11.590;2022-07-10T05:34:32;14.57;;;10.40;;
60432;SDS011;46286;48.098;11.590;2022-07-10T05:36:58;14.20;;;9.73;;
60432;SDS011;46286;48.098;11.590;2022-07-10T05:39:24;16.48;;;10.55;;
60432;SDS011;46286;48.098;11.590;2022-07-10T05:41:52;16.98;;;10.07;;
60432;SDS011;46286;48.098;11.590;2022-07-10T05:44:18;16.60;;;9.75;;
60432;SDS011;46286;48.098;11.590;2022-07-10T05:46:44;16.23;;;10.65;;
60432;SDS011;46286;48.098;11.590;2022-07-10T05:49:10;16.20;;;10.48;;
60432;SDS011;46286;48.098;11.590;2022-07-10T05:51:36;17.05;;;9.85;;
60432;SDS011;46286;48.098;11.590;2022-07-10T05:54:01;15.95;;;10.40;;
60432;SDS011;46286;48.098;11.590;2022-07-10T05:56:27;14.73;;;10.15;;
60432;SDS011;46286;48.098;11.590;2022-07-10T05:58:52;18.08;;;10.80;;
60432;SDS011;46286;48.098;11.590;2022-07-10T06:01:20;15.27;;;10.35;;
60432;SDS011;46286;48.098;11.590;2022-07-10T06:03:46;23.30;;;10.95;;
60432;SDS011;46286;48.098;11.590;2022-07-10T06:06:11;14.38;;;9.90;;
60432;SDS011;46286;48.098;11.590;2022-07-10T06:08:40;15.90;;;10.70;;
60432;SDS011;46286;48.098;11.590;2022-07-10T06:11:06;16.55;;;10.40;;
60432;SDS011;46286;48.098;11.590;2022-07-10T06:13:31;13.77;;;9.95;;
60432;SDS011;46286;48.098;11.590;2022-07-10T06:15:57;16.08;;;10.65;;
60432;SDS011;46286;48.098;11.590;2022-07-10T06:18:22;15.57;;;10.10;;
60432;SDS011;46286;48.098;11.590;2022-07-10T06:20:48;16.20;;;10.95;;
60432;SDS011;46286;48.098;11.590;2022-07-10T06:23:13;18.52;;;10.70;;
60432;SDS011;46286;48.098;11.590;2022-07-10T06:25:39;15.98;;;10.05;;
60432;SDS011;46286;48.098;11.590;2022-07-10T06:28:04;14.60;;;10.07;;
60432;SDS011;46286;48.098;11.590;2022-07-10T06:30:30;16.70;;;10.55;;
60432;SDS011;46286;48.098;11.590;2022-07-10T06:32:55;15.63;;;10.93;;
60432;SDS011;46286;48.098;11.590;2022-07-10T06:35:21;17.52;;;10.65;;
60432;SDS011;46286;48.098;11.590;2022-07-10T06:37:46;16.05;;;9.75;;
60432;SDS011;46286;48.098;11.590;2022-07-10T06:40:12;15.05;;;10.90;;
60432;SDS011;46286;48.098;11.590;2022-07-10T06:42:41;18.73;;;10.25;;
60432;SDS011;46286;48.098;11.590;2022-07-10T06:45:07;16.10;;;11.10;;
60432;SDS011;46286;48.098;11.590;2022-07-10T06:47:33;19.00;;;9.80;;
60432;SDS011;46286;48.098;11.590;2022-07-10T06:50:18;15.35;;;9.95;;
60432;SDS011;46286;48.098;11.590;2022-07-10T06:52:44;14.18;;;9.93;;
60432;SDS011;46286;48.098;11.590;2022-07-10T06:55:09;16.00;;;11.02;;
60432;SDS011;46286;48.098;11.590;2022-07-10T06:57:35;13.85;;;9.70;;
60432;SDS011;46286;48.098;11.590;2022-07-10T07:00:00;16.63;;;10.85;;
60432;SDS011;46286;48.098;11.590;2022-07-10T07:02:26;15.93;;;10.40;;
60432;SDS011;46286;48.098;11.590;2022-07-10T07:04:52;14.90;;;10.88;;
60432;SDS011;46286;48.098;11.590;2022-07-10T07:07:17;14.43;;;10.45;;
60432;SDS011;46286;48.098;11.590;2022-07-10T07:09:43;16.20;;;10.77;;
60432;SDS011;46286;48.098;11.590;2022-07-10T07:12:10;15.88;;;10.95;;
60432;SDS011;46286;48.098;11.590;2022-07-10T07:14:35;15.23;;;10.80;;
60432;SDS011;46286;48.098;11.590;2022-07-10T07:17:01;17.30;;;11.63;;
60432;SDS011;46286;48.098;11.590;2022-07-10T07:19:32;14.35;;;9.95;;
60432;SDS011;46286;48.098;11.590;2022-07-10T07:22:18;16.85;;;10.77;;
60432;SDS011;46286;48.098;11.590;2022-07-10T07:25:06;16.45;;;10.75;;
60432;SDS011;46286;48.098;11.590;2022-07-10T07:27:34;16.02;;;10.50;;
60432;SDS011;46286;48.098;11.590;2022-07-10T07:30:10;17.95;;;10.65;;
60432;SDS011;46286;48.098;11.590;2022-07-10T07:32:38;16.80;;;10.82;;
60432;SDS011;46286;48.098;11.590;2022-07-10T07:35:04;17.48;;;10.52;;
60432;SDS011;46286;48.098;11.590;2022-07-10T07:37:37;17.63;;;10.05;;
60432;SDS011;46286;48.098;11.590;2022-07-10T07:40:07;13.52;;;9.52;;
60432;SDS011;46286;48.098;11.590;2022-07-10T07:42:35;14.77;;;9.60;;
60432;SDS011;46286;48.098;11.590;2022-07-10T07:45:01;14.55;;;9.75;;
60432;SDS011;46286;48.098;11.590;2022-07-10T07:47:27;15.07;;;10.02;;
60432;SDS011;46286;48.098;11.590;2022-07-10T07:49:52;15.20;;;9.85;;
60432;SDS011;46286;48.098;11.590;2022-07-10T07:52:18;15.25;;;8.93;;
60432;SDS011;46286;48.098;11.590;2022-07-10T07:54:43;14.05;;;9.10;;
60432;SDS011;46286;48.098;11.590;2022-07-10T07:57:10;16.05;;;9.13;;
60432;SDS011;46286;48.098;11.590;2022-07-10T07:59:35;14.40;;;8.85;;
60432;SDS011;46286;48.098;11.590;2022-07-10T08:02:01;17.38;;;8.95;;
60432;SDS011;46286;48.098;11.590;2022-07-10T08:04:26;12.07;;;8.73;;
60432;SDS011;46286;48.098;11.590;2022-07-10T08:06:52;12.98;;;8.25;;
60432;SDS011;46286;48.098;11.590;2022-07-10T08:09:19;14.45;;;8.32;;
60432;SDS011;46286;48.098;11.590;2022-07-10T08:11:45;12.65;;;8.07;;
60432;SDS011;46286;48.098;11.590;2022-07-10T08:14:11;14.65;;;7.88;;
60432;SDS011;46286;48.098;11.590;2022-07-10T08:16:37;12.60;;;7.53;;
60432;SDS011;46286;48.098;11.590;2022-07-10T08:19:02;11.43;;;7.68;;
60432;SDS011;46286;48.098;11.590;2022-07-10T08:21:28;12.35;;;7.22;;
60432;SDS011;46286;48.098;11.590;2022-07-10T08:23:53;8.98;;;6.53;;
60432;SDS011;46286;48.098;11.590;2022-07-10T08:26:19;10.27;;;7.05;;
60432;SDS011;46286;48.098;11.590;2022-07-10T08:28:45;10.93;;;6.53;;
60432;SDS011;46286;48.098;11.590;2022-07-10T08:31:11;9.57;;;5.13;;
60432;SDS011;46286;48.098;11.590;2022-07-10T08:33:36;8.10;;;5.38;;
60432;SDS011;46286;48.098;11.590;2022-07-10T08:36:02;10.18;;;6.30;;
60432;SDS011;46286;48.098;11.590;2022-07-10T08:38:29;11.57;;;5.90;;
60432;SDS011;46286;48.098;11.590;2022-07-10T08:40:54;8.52;;;5.47;;
60432;SDS011;46286;48.098;11.590;2022-07-10T08:43:24;9.40;;;5.30;;
60432;SDS011;46286;48.098;11.590;2022-07-10T08:45:50;9.63;;;5.15;;
60432;SDS011;46286;48.098;11.590;2022-07-10T08:48:18;8.27;;;4.90;;
60432;SDS011;46286;48.098;11.590;2022-07-10T08:50:47;8.00;;;4.68;;
60432;SDS011;46286;48.098;11.590;2022-07-10T08:53:18;6.55;;;3.90;;
60432;SDS011;46286;48.098;11.590;2022-07-10T08:55:57;8.30;;;4.25;;
60432;SDS011;46286;48.098;11.590;2022-07-10T08:58:25;8.90;;;4.15;;
60432;SDS011;46286;48.098;11.590;2022-07-10T09:00:51;8.63;;;4.30;;
60432;SDS011;46286;48.098;11.590;2022-07-10T09:03:18;7.40;;;4.43;;
60432;SDS011;46286;48.098;11.590;2022-07-10T09:05:44;8.48;;;4.38;;
60432;SDS011;46286;48.098;11.590;2022-07-10T09:10:49;10.35;;;3.88;;
60432;SDS011;46286;48.098;11.590;2022-07-10T09:13:16;5.75;;;4.00;;
60432;SDS011;46286;48.098;11.590;2022-07-10T09:15:47;10.07;;;3.92;;
60432;SDS011;46286;48.098;11.590;2022-07-10T09:18:17;7.47;;;3.88;;
60432;SDS011;46286;48.098;11.590;2022-07-10T09:20:45;6.32;;;3.33;;
60432;SDS011;46286;48.098;11.590;2022-07-10T09:23:18;9.38;;;3.92;;
60432;SDS011;46286;48.098;11.590;2022-07-10T09:25:46;9.45;;;3.83;;
60432;SDS011;46286;48.098;11.590;2022-07-10T09:28:21;9.30;;;3.70;;
60432;SDS011;46286;48.098;11.590;2022-07-10T09:30:51;6.20;;;3.60;;
60432;SDS011;46286;48.098;11.590;2022-07-10T09:33:20;5.90;;;3.60;;
60432;SDS011;46286;48.098;11.590;2022-07-10T09:35:58;6.40;;;3.40;;
60432;SDS011;46286;48.098;11.590;2022-07-10T09:41:12;10.52;;;3.55;;
60432;SDS011;46286;48.098;11.590;2022-07-10T09:43:46;7.63;;;3.10;;
60432;SDS011;46286;48.098;11.590;2022-07-10T09:46:12;6.35;;;3.20;;
60432;SDS011;46286;48.098;11.590;2022-07-10T09:48:39;10.95;;;3.20;;
60432;SDS011;46286;48.098;11.590;2022-07-10T09:51:08;8.45;;;3.10;;
60432;SDS011;46286;48.098;11.590;2022-07-10T09:53:41;6.10;;;3.17;;
60432;SDS011;46286;48.098;11.590;2022-07-10T09:56:09;5.13;;;2.93;;
60432;SDS011;46286;48.098;11.590;2022-07-10T09:58:37;4.53;;;2.67;;
60432;SDS011;46286;48.098;11.590;2022-07-10T10:01:06;6.13;;;3.40;;
60432;SDS011;46286;48.098;11.590;2022-07-10T10:03:37;6.32;;;3.00;;
60432;SDS011;46286;48.098;11.590;2022-07-10T10:06:10;4.38;;;2.67;;
60432;SDS011;46286;48.098;11.590;2022-07-10T10:11:33;4.68;;;3.10;;
60432;SDS011;46286;48.098;11.590;2022-07-10T10:14:02;6.32;;;2.90;;
60432;SDS011;46286;48.098;11.590;2022-07-10T10:16:28;4.53;;;2.90;;
60432;SDS011;46286;48.098;11.590;2022-07-10T10:18:55;6.03;;;2.83;;
60432;SDS011;46286;48.098;11.590;2022-07-10T10:21:39;6.32;;;2.83;;
60432;SDS011;46286;48.098;11.590;2022-07-10T10:24:05;5.28;;;2.95;;
60432;SDS011;46286;48.098;11.590;2022-07-10T10:26:32;10.30;;;2.92;;
60432;SDS011;46286;48.098;11.590;2022-07-10T10:28:58;5.13;;;2.60;;
60432;SDS011;46286;48.098;11.590;2022-07-10T10:31:26;4.88;;;2.75;;
60432;SDS011;46286;48.098;11.590;2022-07-10T10:33:56;3.78;;;2.47;;
60432;SDS011;46286;48.098;11.590;2022-07-10T10:39:16;4.38;;;2.70;;
60432;SDS011;46286;48.098;11.590;2022-07-10T10:49:19;4.80;;;2.40;;
60432;SDS011;46286;48.098;11.590;2022-07-10T10:51:59;4.57;;;2.22;;
60432;SDS011;46286;48.098;11.590;2022-07-10T10:54:29;7.43;;;2.40;;
60432;SDS011;46286;48.098;11.590;2022-07-10T10:57:16;5.60;;;2.60;;
60432;SDS011;46286;48.098;11.590;2022-07-10T11:04:47;3.17;;;2.10;;
60432;SDS011;46286;48.098;11.590;2022-07-10T11:07:50;5.10;;;2.10;;
60432;SDS011;46286;48.098;11.590;2022-07-10T11:13:05;6.90;;;2.40;;
60432;SDS011;46286;48.098;11.590;2022-07-10T11:15:33;4.70;;;2.20;;
60432;SDS011;46286;48.098;11.590;2022-07-10T11:18:13;5.80;;;2.40;;
60432;SDS011;46286;48.098;11.590;2022-07-10T11:20:41;5.72;;;2.67;;
60432;SDS011;46286;48.098;11.590;2022-07-10T11:26:10;4.57;;;2.47;;
60432;SDS011;46286;48.098;11.590;2022-07-10T11:28:46;4.93;;;2.50;;
60432;SDS011;46286;48.098;11.590;2022-07-10T11:31:23;4.10;;;2.50;;
60432;SDS011;46286;48.098;11.590;2022-07-10T11:33:51;6.03;;;2.10;;
60432;SDS011;46286;48.098;11.590;2022-07-10T11:36:19;5.20;;;2.53;;
60432;SDS011;46286;48.098;11.590;2022-07-10T11:38:47;6.00;;;2.30;;
60432;SDS011;46286;48.098;11.590;2022-07-10T11:41:17;6.15;;;2.25;;
60432;SDS011;46286;48.098;11.590;2022-07-10T11:43:48;6.78;;;2.28;;
60432;SDS011;46286;48.098;11.590;2022-07-10T11:46:21;3.97;;;2.08;;
60432;SDS011;46286;48.098;11.590;2022-07-10T11:48:49;5.78;;;2.63;;
60432;SDS011;46286;48.098;11.590;2022-07-10T11:51:22;3.53;;;2.10;;
60432;SDS011;46286;48.098;11.590;2022-07-10T11:53:59;5.03;;;2.17;;
60432;SDS011;46286;48.098;11.590;2022-07-10T11:56:27;3.10;;;2.22;;
60432;SDS011;46286;48.098;11.590;2022-07-10T11:58:55;3.50;;;2.10;;
60432;SDS011;46286;48.098;11.590;2022-07-10T12:01:24;4.32;;;2.00;;
60432;SDS011;46286;48.098;11.590;2022-07-10T12:03:53;5.35;;;2.10;;
60432;SDS011;46286;48.098;11.590;2022-07-10T12:06:23;5.88;;;2.35;;
60432;SDS011;46286;48.098;11.590;2022-07-10T12:08:49;4.82;;;2.13;;
60432;SDS011;46286;48.098;11.590;2022-07-10T12:11:17;3.95;;;2.30;;
60432;SDS011;46286;48.098;11.590;2022-07-10T12:13:44;4.90;;;2.00;;
60432;SDS011;46286;48.098;11.590;2022-07-10T12:16:10;4.13;;;1.80;;
60432;SDS011;46286;48.098;11.590;2022-07-10T12:18:36;3.47;;;1.90;;
60432;SDS011;46286;48.098;11.590;2022-07-10T12:21:02;3.72;;;2.20;;
60432;SDS011;46286;48.098;11.590;2022-07-10T12:23:29;4.28;;;2.05;;
60432;SDS011;46286;48.098;11.590;2022-07-10T12:25:55;4.25;;;2.10;;
60432;SDS011;46286;48.098;11.590;2022-07-10T12:28:21;5.22;;;2.17;;
60432;SDS011;46286;48.098;11.590;2022-07-10T12:30:48;5.32;;;2.08;;
60432;SDS011;46286;48.098;11.590;2022-07-10T12:33:21;4.03;;;2.15;;
60432;SDS011;46286;48.098;11.590;2022-07-10T12:35:49;5.82;;;2.17;;
60432;SDS011;46286;48.098;11.590;2022-07-10T12:38:22;3.13;;;1.90;;
60432;SDS011;46286;48.098;11.590;2022-07-10T12:40:49;5.93;;;2.28;;
60432;SDS011;46286;48.098;11.590;2022-07-10T12:43:28;4.63;;;1.98;;
60432;SDS011;46286;48.098;11.590;2022-07-10T12:46:13;5.55;;;1.80;;
60432;SDS011;46286;48.098;11.590;2022-07-10T12:48:44;3.65;;;2.00;;
60432;SDS011;46286;48.098;11.590;2022-07-10T12:51:34;3.30;;;2.00;;
60432;SDS011;46286;48.098;11.590;2022-07-10T12:54:05;2.83;;;2.17;;
60432;SDS011;46286;48.098;11.590;2022-07-10T12:56:32;4.13;;;2.10;;
60432;SDS011;46286;48.098;11.590;2022-07-10T12:59:02;3.63;;;2.10;;
60432;SDS011;46286;48.098;11.590;2022-07-10T13:01:41;4.57;;;2.00;;
60432;SDS011;46286;48.098;11.590;2022-07-10T13:04:08;4.70;;;2.10;;
60432;SDS011;46286;48.098;11.590;2022-07-10T13:06:34;6.18;;;2.10;;
60432;SDS011;46286;48.098;11.590;2022-07-10T13:09:02;3.45;;;2.00;;
60432;SDS011;46286;48.098;11.590;2022-07-10T13:11:42;5.28;;;1.95;;
60432;SDS011;46286;48.098;11.590;2022-07-10T13:14:08;4.30;;;1.80;;
60432;SDS011;46286;48.098;11.590;2022-07-10T13:16:34;4.75;;;2.10;;
60432;SDS011;46286;48.098;11.590;2022-07-10T13:18:59;4.75;;;2.10;;
60432;SDS011;46286;48.098;11.590;2022-07-10T13:21:24;3.60;;;1.92;;
60432;SDS011;46286;48.098;11.590;2022-07-10T13:23:50;4.57;;;2.08;;
60432;SDS011;46286;48.098;11.590;2022-07-10T13:26:15;3.05;;;1.98;;
60432;SDS011;46286;48.098;11.590;2022-07-10T13:28:41;5.07;;;2.00;;
60432;SDS011;46286;48.098;11.590;2022-07-10T13:31:07;4.82;;;2.00;;
60432;SDS011;46286;48.098;11.590;2022-07-10T13:33:33;3.45;;;1.90;;
60432;SDS011;46286;48.098;11.590;2022-07-10T13:36:00;5.65;;;2.10;;
60432;SDS011;46286;48.098;11.590;2022-07-10T13:38:26;7.90;;;2.20;;
60432;SDS011;46286;48.098;11.590;2022-07-10T13:40:52;4.10;;;1.90;;
60432;SDS011;46286;48.098;11.590;2022-07-10T13:43:18;4.25;;;2.10;;
60432;SDS011;46286;48.098;11.590;2022-07-10T13:45:46;3.20;;;2.00;;
60432;SDS011;46286;48.098;11.590;2022-07-10T13:48:12;4.53;;;1.90;;
60432;SDS011;46286;48.098;11.590;2022-07-10T13:50:43;5.97;;;2.33;;
60432;SDS011;46286;48.098;11.590;2022-07-10T13:53:11;4.40;;;2.00;;
60432;SDS011;46286;48.098;11.590;2022-07-10T13:55:37;5.25;;;2.13;;
60432;SDS011;46286;48.098;11.590;2022-07-10T13:58:04;4.82;;;2.22;;
60432;SDS011;46286;48.098;11.590;2022-07-10T14:00:29;3.45;;;1.85;;
60432;SDS011;46286;48.098;11.590;2022-07-10T14:02:55;5.00;;;2.03;;
60432;SDS011;46286;48.098;11.590;2022-07-10T14:05:23;4.25;;;2.15;;
60432;SDS011;46286;48.098;11.590;2022-07-10T14:07:49;4.70;;;2.08;;
60432;SDS011;46286;48.098;11.590;2022-07-10T14:10:14;4.15;;;1.92;;
60432;SDS011;46286;48.098;11.590;2022-07-10T14:12:40;4.20;;;2.00;;
60432;SDS011;46286;48.098;11.590;2022-07-10T14:15:06;4.10;;;1.98;;
60432;SDS011;46286;48.098;11.590;2022-07-10T14:17:32;3.08;;;1.95;;
60432;SDS011;46286;48.098;11.590;2022-07-10T14:19:58;4.60;;;2.05;;
60432;SDS011;46286;48.098;11.590;2022-07-10T14:22:23;4.50;;;1.75;;
60432;SDS011;46286;48.098;11.590;2022-07-10T14:24:50;3.35;;;1.92;;
60432;SDS011;46286;48.098;11.590;2022-07-10T14:27:17;3.53;;;2.00;;
60432;SDS011;46286;48.098;11.590;2022-07-10T14:29:43;5.72;;;2.03;;
60432;SDS011;46286;48.098;11.590;2022-07-10T14:32:08;3.72;;;2.05;;
60432;SDS011;46286;48.098;11.590;2022-07-10T14:34:34;3.30;;;2.03;;
60432;SDS011;46286;48.098;11.590;2022-07-10T14:37:00;3.42;;;2.00;;
60432;SDS011;46286;48.098;11.590;2022-07-10T14:39:26;3.78;;;2.22;;
60432;SDS011;46286;48.098;11.590;2022-07-10T14:41:52;3.17;;;1.85;;
60432;SDS011;46286;48.098;11.590;2022-07-10T14:44:17;4.30;;;1.77;;
60432;SDS011;46286;48.098;11.590;2022-07-10T14:46:43;5.78;;;2.47;;
60432;SDS011;46286;48.098;11.590;2022-07-10T14:49:08;16.10;;;4.05;;
60432;SDS011;46286;48.098;11.590;2022-07-10T14:51:34;3.22;;;1.98;;
60432;SDS011;46286;48.098;11.590;2022-07-10T14:54:00;3.67;;;1.90;;
60432;SDS011;46286;48.098;11.590;2022-07-10T14:56:26;5.05;;;2.10;;
60432;SDS011;46286;48.098;11.590;2022-07-10T14:58:52;5.07;;;1.98;;